createdAt,value
2018-10-05T00:00:41.345Z,0.00
2018-10-05T00:01:41.348Z,0.00
2018-10-05T00:02:41.369Z,0.00
2018-10-05T00:03:41.356Z,0.00
2018-10-05T00:04:41.360Z,0.00
2018-10-05T00:05:41.366Z,0.00
2018-10-05T00:06:41.570Z,0.00
2018-10-05T00:07:41.370Z,0.00
2018-10-05T00:08:41.374Z,0.00
2018-10-05T00:09:41.391Z,0.00
2018-10-05T00:10:41.382Z,0.00
2018-10-05T00:11:41.400Z,0.00
2018-10-05T00:12:41.449Z,0.00
2018-10-05T00:13:41.394Z,0.00
2018-10-05T00:14:41.396Z,0.00
2018-10-05T00:15:41.401Z,0.00
2018-10-05T00:16:41.416Z,0.00
2018-10-05T00:17:41.409Z,0.00
2018-10-05T00:18:41.411Z,0.00
2018-10-05T00:19:41.623Z,0.00
2018-10-05T00:20:41.419Z,0.00
2018-10-05T00:21:41.428Z,0.00
2018-10-05T00:22:41.442Z,0.00
2018-10-05T00:23:41.639Z,0.00
2018-10-05T00:24:41.641Z,0.00
2018-10-05T00:25:41.448Z,0.00
2018-10-05T00:26:41.445Z,0.00
2018-10-05T00:27:41.457Z,0.00
2018-10-05T00:28:41.666Z,0.00
2018-10-05T00:29:41.458Z,0.00
2018-10-05T00:30:41.461Z,0.00
2018-10-05T00:31:41.462Z,0.00
2018-10-05T00:32:41.471Z,0.00
2018-10-05T00:33:41.469Z,0.00
2018-10-05T00:34:41.476Z,0.00
2018-10-05T00:35:41.477Z,0.00
2018-10-05T00:36:41.684Z,0.00
2018-10-05T00:37:41.484Z,0.00
2018-10-05T00:38:41.503Z,0.00
2018-10-05T00:39:41.553Z,0.00
2018-10-05T00:40:41.499Z,0.00
2018-10-05T00:41:41.502Z,0.00
2018-10-05T00:42:41.504Z,0.00
2018-10-05T00:43:41.514Z,0.00
2018-10-05T00:44:41.516Z,0.00
2018-10-05T00:45:41.535Z,0.00
2018-10-05T00:46:41.744Z,0.00
2018-10-05T00:47:41.728Z,0.00
2018-10-05T00:48:41.528Z,0.00
2018-10-05T00:49:41.536Z,0.00
2018-10-05T00:50:41.536Z,0.00
2018-10-05T00:51:41.551Z,0.00
2018-10-05T00:52:41.542Z,0.00
2018-10-05T00:53:41.765Z,0.00
2018-10-05T00:54:41.551Z,0.00
2018-10-05T00:55:41.553Z,0.00
2018-10-05T00:56:41.760Z,0.00
2018-10-05T00:57:41.576Z,0.00
2018-10-05T00:58:41.579Z,0.00
2018-10-05T00:59:41.569Z,0.00
2018-10-05T01:00:41.577Z,0.00
2018-10-05T01:01:41.636Z,0.00
2018-10-05T01:02:41.815Z,0.00
2018-10-05T01:03:41.587Z,0.00
2018-10-05T01:04:41.795Z,0.00
2018-10-05T01:05:41.795Z,0.00
2018-10-05T01:06:41.608Z,0.00
2018-10-05T01:07:41.601Z,0.00
2018-10-05T01:08:41.616Z,0.00
2018-10-05T01:09:41.611Z,0.00
2018-10-05T01:10:41.814Z,0.00
2018-10-05T01:11:41.616Z,0.00
2018-10-05T01:12:41.826Z,0.00
2018-10-05T01:13:41.626Z,0.00
2018-10-05T01:14:41.630Z,0.00
2018-10-05T01:15:41.630Z,0.00
2018-10-05T01:16:41.838Z,0.00
2018-10-05T01:17:41.657Z,0.00
2018-10-05T01:18:41.848Z,0.00
2018-10-05T01:19:41.647Z,0.00
2018-10-05T01:20:41.651Z,0.00
2018-10-05T01:21:41.654Z,0.00
2018-10-05T01:22:41.675Z,0.00
2018-10-05T01:23:41.672Z,0.00
2018-10-05T01:24:41.720Z,0.00
2018-10-05T01:25:41.669Z,0.00
2018-10-05T01:26:41.687Z,0.00
2018-10-05T01:27:41.676Z,0.00
2018-10-05T01:28:41.683Z,0.00
2018-10-05T01:29:41.687Z,0.00
2018-10-05T01:30:41.891Z,0.00
2018-10-05T01:31:41.693Z,0.00
2018-10-05T01:32:41.709Z,0.00
2018-10-05T01:33:41.700Z,0.00
2018-10-05T01:34:41.706Z,0.00
2018-10-05T01:35:41.707Z,0.00
2018-10-05T01:36:41.722Z,0.00
2018-10-05T01:37:41.714Z,0.00
2018-10-05T01:38:41.749Z,0.00
2018-10-05T01:39:41.725Z,0.00
2018-10-05T01:40:41.732Z,0.00
2018-10-05T01:41:41.730Z,0.00
2018-10-05T01:42:41.747Z,0.00
2018-10-05T01:43:41.752Z,0.00
2018-10-05T01:44:41.746Z,0.00
2018-10-05T01:45:41.768Z,0.00
2018-10-05T01:46:41.953Z,0.00
2018-10-05T01:47:41.960Z,0.00
2018-10-05T01:48:41.758Z,0.00
2018-10-05T01:49:41.762Z,0.00
2018-10-05T01:50:41.766Z,0.00
2018-10-05T01:51:41.769Z,0.00
2018-10-05T01:52:41.774Z,0.00
2018-10-05T01:53:41.775Z,0.00
2018-10-05T01:54:41.780Z,0.00
2018-10-05T01:55:41.795Z,0.00
2018-10-05T01:56:41.790Z,0.00
2018-10-05T01:57:41.996Z,0.00
2018-10-05T01:58:41.797Z,0.00
2018-10-05T01:59:41.803Z,0.00
2018-10-05T02:00:41.803Z,0.00
2018-10-05T02:01:41.805Z,0.00
2018-10-05T02:02:41.939Z,0.00
2018-10-05T02:03:41.813Z,0.00
2018-10-05T02:04:42.026Z,0.00
2018-10-05T02:05:41.833Z,0.00
2018-10-05T02:06:41.838Z,0.00
2018-10-05T02:07:41.839Z,0.00
2018-10-05T02:08:41.835Z,0.00
2018-10-05T02:09:41.840Z,0.00
2018-10-05T02:10:41.844Z,0.00
2018-10-05T02:11:41.845Z,0.00
2018-10-05T02:12:41.850Z,0.00
2018-10-05T02:13:41.853Z,0.00
2018-10-05T02:14:41.860Z,0.00
2018-10-05T02:15:42.061Z,0.00
2018-10-05T02:16:41.878Z,0.00
2018-10-05T02:17:41.866Z,0.00
2018-10-05T02:18:41.870Z,0.00
2018-10-05T02:19:41.881Z,0.00
2018-10-05T02:20:42.095Z,0.00
2018-10-05T02:21:41.884Z,0.00
2018-10-05T02:22:41.886Z,0.00
2018-10-05T02:23:41.901Z,0.00
2018-10-05T02:24:42.112Z,0.00
2018-10-05T02:25:42.102Z,0.00
2018-10-05T02:26:41.906Z,0.00
2018-10-05T02:27:41.973Z,0.00
2018-10-05T02:28:42.114Z,0.00
2018-10-05T02:29:41.922Z,0.00
2018-10-05T02:30:41.918Z,0.00
2018-10-05T02:31:41.920Z,0.00
2018-10-05T02:32:41.927Z,0.00
2018-10-05T02:33:41.926Z,0.00
2018-10-05T02:34:41.932Z,0.00
2018-10-05T02:35:41.937Z,0.00
2018-10-05T02:36:41.967Z,0.00
2018-10-05T02:37:41.958Z,0.00
2018-10-05T02:38:41.957Z,0.00
2018-10-05T02:39:41.961Z,0.00
2018-10-05T02:40:41.956Z,0.00
2018-10-05T02:41:42.035Z,0.00
2018-10-05T02:42:41.963Z,0.00
2018-10-05T02:43:41.968Z,0.00
2018-10-05T02:44:42.174Z,0.00
2018-10-05T02:45:42.175Z,0.00
2018-10-05T02:46:41.976Z,0.00
2018-10-05T02:47:41.983Z,0.00
2018-10-05T02:48:42.252Z,0.00
2018-10-05T02:49:42.192Z,0.00
2018-10-05T02:50:42.023Z,0.00
2018-10-05T02:51:41.995Z,0.00
2018-10-05T02:52:42.004Z,0.00
2018-10-05T02:53:42.003Z,0.00
2018-10-05T02:54:42.008Z,0.00
2018-10-05T02:55:42.024Z,0.00
2018-10-05T02:56:42.218Z,0.00
2018-10-05T02:57:42.021Z,0.00
2018-10-05T02:58:42.022Z,0.00
2018-10-05T02:59:42.029Z,0.00
2018-10-05T03:00:42.034Z,0.00
2018-10-05T03:01:42.034Z,0.00
2018-10-05T03:02:42.053Z,0.00
2018-10-05T03:03:42.041Z,0.00
2018-10-05T03:04:42.247Z,0.00
2018-10-05T03:05:42.062Z,0.00
2018-10-05T03:06:42.052Z,0.00
2018-10-05T03:07:42.056Z,0.00
2018-10-05T03:08:42.263Z,0.00
2018-10-05T03:09:42.062Z,0.00
2018-10-05T03:10:42.270Z,0.00
2018-10-05T03:11:42.280Z,0.00
2018-10-05T03:12:42.073Z,0.00
2018-10-05T03:13:42.086Z,0.00
2018-10-05T03:14:42.082Z,0.00
2018-10-05T03:15:42.086Z,0.00
2018-10-05T03:17:42.092Z,0.00
2018-10-05T03:18:42.097Z,0.00
2018-10-05T03:19:42.328Z,0.00
2018-10-05T03:20:42.308Z,0.00
2018-10-05T03:21:42.311Z,0.00
2018-10-05T03:22:42.115Z,0.00
2018-10-05T03:23:42.115Z,0.00
2018-10-05T03:24:42.120Z,0.00
2018-10-05T03:25:42.134Z,0.00
2018-10-05T03:26:42.127Z,0.00
2018-10-05T03:27:42.333Z,0.00
2018-10-05T03:28:42.139Z,0.00
2018-10-05T03:29:42.138Z,0.00
2018-10-05T03:30:42.156Z,0.00
2018-10-05T03:31:42.414Z,0.00
2018-10-05T03:32:42.163Z,0.00
2018-10-05T03:33:42.357Z,0.00
2018-10-05T03:34:42.157Z,0.00
2018-10-05T03:35:42.161Z,0.00
2018-10-05T03:36:42.165Z,0.00
2018-10-05T03:37:42.181Z,0.00
2018-10-05T03:38:42.171Z,0.00
2018-10-05T03:39:42.186Z,0.00
2018-10-05T03:40:42.180Z,0.00
2018-10-05T03:41:42.192Z,0.00
2018-10-05T03:42:42.188Z,0.00
2018-10-05T03:43:42.394Z,0.00
2018-10-05T03:44:42.198Z,0.00
2018-10-05T03:45:42.198Z,0.00
2018-10-05T03:46:42.405Z,0.00
2018-10-05T03:47:42.209Z,0.00
2018-10-05T03:48:42.209Z,0.00
2018-10-05T03:49:42.215Z,0.00
2018-10-05T03:50:42.230Z,0.00
2018-10-05T03:51:42.426Z,0.00
2018-10-05T03:52:42.226Z,0.00
2018-10-05T03:53:42.440Z,0.00
2018-10-05T03:54:42.229Z,0.00
2018-10-05T03:55:42.235Z,0.00
2018-10-05T03:56:42.443Z,0.00
2018-10-05T03:57:42.444Z,0.00
2018-10-05T03:58:42.450Z,0.00
2018-10-05T03:59:42.249Z,0.00
2018-10-05T04:00:42.260Z,0.00
2018-10-05T04:01:42.259Z,0.00
2018-10-05T04:02:42.277Z,0.00
2018-10-05T04:03:42.277Z,0.00
2018-10-05T04:04:42.488Z,0.00
2018-10-05T04:05:42.277Z,0.00
2018-10-05T04:06:42.482Z,0.00
2018-10-05T04:07:42.301Z,0.00
2018-10-05T04:08:42.288Z,0.00
2018-10-05T04:09:42.292Z,0.00
2018-10-05T04:10:42.292Z,0.00
2018-10-05T04:11:42.324Z,0.00
2018-10-05T04:12:42.328Z,0.00
2018-10-05T04:13:42.507Z,0.00
2018-10-05T04:14:42.310Z,0.00
2018-10-05T04:15:42.522Z,0.00
2018-10-05T04:16:42.315Z,0.00
2018-10-05T04:17:42.520Z,0.00
2018-10-05T04:18:42.324Z,0.00
2018-10-05T04:19:42.338Z,0.00
2018-10-05T04:20:42.475Z,4.00
2018-10-05T04:21:42.351Z,4.00
2018-10-05T04:22:42.357Z,4.00
2018-10-05T04:23:42.570Z,0.00
2018-10-05T04:24:42.555Z,0.00
2018-10-05T04:25:42.354Z,0.00
2018-10-05T04:26:42.354Z,0.00
2018-10-05T04:27:42.375Z,0.00
2018-10-05T04:28:42.367Z,0.00
2018-10-05T04:29:42.367Z,0.00
2018-10-05T04:30:42.372Z,0.00
2018-10-05T04:31:42.376Z,0.00
2018-10-05T04:32:42.382Z,0.00
2018-10-05T04:33:42.384Z,0.00
2018-10-05T04:34:42.412Z,0.00
2018-10-05T04:35:42.686Z,0.00
2018-10-05T04:36:42.400Z,0.00
2018-10-05T04:37:42.399Z,0.00
2018-10-05T04:38:42.417Z,0.00
2018-10-05T04:39:42.618Z,0.00
2018-10-05T04:40:42.634Z,0.00
2018-10-05T04:41:42.434Z,0.00
2018-10-05T04:42:42.640Z,0.00
2018-10-05T04:43:42.427Z,0.00
2018-10-05T04:44:42.431Z,0.00
2018-10-05T04:45:42.436Z,0.00
2018-10-05T04:46:42.437Z,0.00
2018-10-05T04:47:42.658Z,0.00
2018-10-05T04:48:42.449Z,0.00
2018-10-05T04:49:42.560Z,0.00
2018-10-05T04:50:42.458Z,0.00
2018-10-05T04:51:42.467Z,0.00
2018-10-05T04:52:42.464Z,0.00
2018-10-05T04:53:42.482Z,0.00
2018-10-05T04:54:42.687Z,0.00
2018-10-05T04:55:42.488Z,0.00
2018-10-05T04:56:42.498Z,0.00
2018-10-05T04:57:42.488Z,0.00
2018-10-05T04:58:42.691Z,0.00
2018-10-05T04:59:42.496Z,0.00
2018-10-05T05:00:42.500Z,0.00
2018-10-05T05:01:42.705Z,0.00
2018-10-05T05:02:42.510Z,0.00
2018-10-05T05:03:42.517Z,0.00
2018-10-05T05:04:42.530Z,0.00
2018-10-05T05:05:42.520Z,0.00
2018-10-05T05:06:42.536Z,0.00
2018-10-05T05:07:42.733Z,0.00
2018-10-05T05:08:42.741Z,0.00
2018-10-05T05:09:42.553Z,0.00
2018-10-05T05:10:42.557Z,0.00
2018-10-05T05:11:42.563Z,0.00
2018-10-05T05:12:42.567Z,0.00
2018-10-05T05:13:42.765Z,0.00
2018-10-05T05:14:42.574Z,0.00
2018-10-05T05:15:42.577Z,0.00
2018-10-05T05:16:42.584Z,0.00
2018-10-05T05:17:42.789Z,0.00
2018-10-05T05:18:42.594Z,0.00
2018-10-05T05:19:42.689Z,0.00
2018-10-05T05:20:42.612Z,4.00
2018-10-05T05:21:42.592Z,0.00
2018-10-05T05:22:42.800Z,0.00
2018-10-05T05:23:42.621Z,0.00
2018-10-05T05:24:42.632Z,4.00
2018-10-05T05:25:42.640Z,4.00
2018-10-05T05:26:42.618Z,4.00
2018-10-05T05:27:42.834Z,4.00
2018-10-05T05:28:42.635Z,4.00
2018-10-05T05:29:42.644Z,4.00
2018-10-05T05:30:42.844Z,8.00
2018-10-05T05:31:42.839Z,8.00
2018-10-05T05:32:42.652Z,4.00
2018-10-05T05:33:42.685Z,8.00
2018-10-05T05:34:42.655Z,8.00
2018-10-05T05:35:42.656Z,12.00
2018-10-05T05:36:42.660Z,12.00
2018-10-05T05:37:42.666Z,12.00
2018-10-05T05:38:42.672Z,12.00
2018-10-05T05:39:42.925Z,16.00
2018-10-05T05:40:42.705Z,20.00
2018-10-05T05:41:42.881Z,20.00
2018-10-05T05:42:42.687Z,20.00
2018-10-05T05:43:42.691Z,24.00
2018-10-05T05:44:42.724Z,24.00
2018-10-05T05:45:42.720Z,28.00
2018-10-05T05:46:42.710Z,28.00
2018-10-05T05:47:42.918Z,32.00
2018-10-05T05:48:42.708Z,32.00
2018-10-05T05:49:42.713Z,36.00
2018-10-05T05:50:42.724Z,40.00
2018-10-05T05:51:42.736Z,40.00
2018-10-05T05:52:42.730Z,40.00
2018-10-05T05:53:42.729Z,44.00
2018-10-05T05:54:42.739Z,48.00
2018-10-05T05:55:42.739Z,48.00
2018-10-05T05:56:42.745Z,52.00
2018-10-05T05:57:42.760Z,56.00
2018-10-05T05:58:42.777Z,56.00
2018-10-05T05:59:42.765Z,60.00
2018-10-05T06:00:42.764Z,60.00
2018-10-05T06:01:42.990Z,64.00
2018-10-05T06:02:42.783Z,64.00
2018-10-05T06:03:42.776Z,68.00
2018-10-05T06:04:42.994Z,68.00
2018-10-05T06:05:42.782Z,72.00
2018-10-05T06:06:42.805Z,76.00
2018-10-05T06:07:42.791Z,76.00
2018-10-05T06:08:42.796Z,80.00
2018-10-05T06:09:42.800Z,84.00
2018-10-05T06:10:42.805Z,84.00
2018-10-05T06:11:42.809Z,88.00
2018-10-05T06:12:42.813Z,88.00
2018-10-05T06:13:43.019Z,92.00
2018-10-05T06:14:42.835Z,92.00
2018-10-05T06:15:42.832Z,96.00
2018-10-05T06:16:42.830Z,96.00
2018-10-05T06:17:42.834Z,100.00
2018-10-05T06:18:42.848Z,104.00
2018-10-05T06:19:42.859Z,104.00
2018-10-05T06:20:42.874Z,108.00
2018-10-05T06:21:42.969Z,112.00
2018-10-05T06:22:42.855Z,108.00
2018-10-05T06:23:42.870Z,112.00
2018-10-05T06:24:43.067Z,116.00
2018-10-05T06:25:42.883Z,116.00
2018-10-05T06:26:42.890Z,120.00
2018-10-05T06:27:42.883Z,120.00
2018-10-05T06:28:42.881Z,124.00
2018-10-05T06:29:42.885Z,124.00
2018-10-05T06:30:43.053Z,128.00
2018-10-05T06:31:42.895Z,128.00
2018-10-05T06:32:42.897Z,132.00
2018-10-05T06:33:42.911Z,132.00
2018-10-05T06:34:42.914Z,136.00
2018-10-05T06:35:42.910Z,136.00
2018-10-05T06:36:42.913Z,140.00
2018-10-05T06:37:42.916Z,140.00
2018-10-05T06:38:42.924Z,144.00
2018-10-05T06:39:42.935Z,144.00
2018-10-05T06:40:42.930Z,148.00
2018-10-05T06:41:42.951Z,148.00
2018-10-05T06:42:42.937Z,152.00
2018-10-05T06:43:42.953Z,152.00
2018-10-05T06:44:42.947Z,152.00
2018-10-05T06:45:42.961Z,156.00
2018-10-05T06:46:43.154Z,156.00
2018-10-05T06:47:42.971Z,160.00
2018-10-05T06:48:43.167Z,160.00
2018-10-05T06:49:42.968Z,160.00
2018-10-05T06:50:42.982Z,164.00
2018-10-05T06:51:42.987Z,164.00
2018-10-05T06:52:42.978Z,164.00
2018-10-05T06:53:43.211Z,168.00
2018-10-05T06:54:42.986Z,168.00
2018-10-05T06:55:43.003Z,172.00
2018-10-05T06:56:43.218Z,172.00
2018-10-05T06:57:42.998Z,172.00
2018-10-05T06:58:43.065Z,176.00
2018-10-05T06:59:43.225Z,176.00
2018-10-05T07:00:43.024Z,180.00
2018-10-05T07:02:43.020Z,180.00
2018-10-05T07:03:43.057Z,184.00
2018-10-05T07:04:43.068Z,188.00
2018-10-05T07:05:43.238Z,184.00
2018-10-05T07:06:43.040Z,188.00
2018-10-05T07:07:43.141Z,188.00
2018-10-05T07:08:43.044Z,188.00
2018-10-05T07:09:43.047Z,188.00
2018-10-05T07:10:43.062Z,192.00
2018-10-05T07:11:43.067Z,192.00
2018-10-05T07:12:43.076Z,192.00
2018-10-05T07:13:43.269Z,196.00
2018-10-05T07:14:43.069Z,192.00
2018-10-05T07:15:43.132Z,196.00
2018-10-05T07:16:43.293Z,200.00
2018-10-05T07:17:43.082Z,196.00
2018-10-05T07:18:43.085Z,200.00
2018-10-05T07:19:43.120Z,204.00
2018-10-05T07:20:43.325Z,204.00
2018-10-05T07:21:43.107Z,200.00
2018-10-05T07:22:43.102Z,204.00
2018-10-05T07:23:43.117Z,204.00
2018-10-05T07:24:43.316Z,204.00
2018-10-05T07:25:43.137Z,208.00
2018-10-05T07:26:43.120Z,208.00
2018-10-05T07:27:43.146Z,208.00
2018-10-05T07:28:43.181Z,208.00
2018-10-05T07:29:43.142Z,208.00
2018-10-05T07:30:43.159Z,212.00
2018-10-05T07:31:43.154Z,212.00
2018-10-05T07:32:43.349Z,216.00
2018-10-05T07:33:43.146Z,212.00
2018-10-05T07:34:43.150Z,212.00
2018-10-05T07:35:43.156Z,216.00
2018-10-05T07:36:43.193Z,216.00
2018-10-05T07:37:43.167Z,220.00
2018-10-05T07:38:43.179Z,216.00
2018-10-05T07:39:43.172Z,220.00
2018-10-05T07:40:43.190Z,220.00
2018-10-05T07:41:43.178Z,220.00
2018-10-05T07:42:43.188Z,224.00
2018-10-05T07:43:43.417Z,224.00
2018-10-05T07:44:43.407Z,224.00
2018-10-05T07:45:43.212Z,224.00
2018-10-05T07:46:43.415Z,228.00
2018-10-05T07:47:43.224Z,228.00
2018-10-05T07:48:43.237Z,228.00
2018-10-05T07:49:43.432Z,228.00
2018-10-05T07:50:43.215Z,228.00
2018-10-05T07:51:43.287Z,232.00
2018-10-05T07:52:43.230Z,228.00
2018-10-05T07:53:43.431Z,232.00
2018-10-05T07:54:43.448Z,232.00
2018-10-05T07:55:43.451Z,232.00
2018-10-05T07:56:43.246Z,232.00
2018-10-05T07:57:43.372Z,236.00
2018-10-05T07:58:43.251Z,236.00
2018-10-05T07:59:43.266Z,236.00
2018-10-05T08:00:43.258Z,236.00
2018-10-05T08:01:43.467Z,236.00
2018-10-05T08:02:43.276Z,240.00
2018-10-05T08:03:43.271Z,240.00
2018-10-05T08:04:43.288Z,236.00
2018-10-05T08:05:43.288Z,240.00
2018-10-05T08:06:43.293Z,240.00
2018-10-05T08:07:43.290Z,240.00
2018-10-05T08:08:43.301Z,240.00
2018-10-05T08:09:43.438Z,240.00
2018-10-05T08:10:43.310Z,236.00
2018-10-05T08:11:43.306Z,240.00
2018-10-05T08:12:43.332Z,240.00
2018-10-05T08:13:43.313Z,240.00
2018-10-05T08:14:43.319Z,244.00
2018-10-05T08:15:43.333Z,244.00
2018-10-05T08:16:43.539Z,244.00
2018-10-05T08:17:43.535Z,244.00
2018-10-05T08:18:43.333Z,248.00
2018-10-05T08:19:43.350Z,248.00
2018-10-05T08:20:43.548Z,248.00
2018-10-05T08:21:43.562Z,248.00
2018-10-05T08:22:43.366Z,248.00
2018-10-05T08:23:43.371Z,248.00
2018-10-05T08:24:43.375Z,248.00
2018-10-05T08:25:43.570Z,252.00
2018-10-05T08:26:43.367Z,252.00
2018-10-05T08:27:43.374Z,252.00
2018-10-05T08:28:43.403Z,252.00
2018-10-05T08:29:43.393Z,252.00
2018-10-05T08:30:43.397Z,252.00
2018-10-05T08:31:43.391Z,256.00
2018-10-05T08:32:43.417Z,252.00
2018-10-05T08:33:43.399Z,256.00
2018-10-05T08:34:43.403Z,256.00
2018-10-05T08:35:43.422Z,256.00
2018-10-05T08:36:43.423Z,260.00
2018-10-05T08:37:43.416Z,248.00
2018-10-05T08:38:43.639Z,256.00
2018-10-05T08:39:43.447Z,256.00
2018-10-05T08:40:43.431Z,256.00
2018-10-05T08:41:43.445Z,256.00
2018-10-05T08:42:43.444Z,256.00
2018-10-05T08:43:43.447Z,256.00
2018-10-05T08:44:43.447Z,256.00
2018-10-05T08:45:43.717Z,260.00
2018-10-05T08:46:43.456Z,256.00
2018-10-05T08:47:43.473Z,256.00
2018-10-05T08:48:43.470Z,256.00
2018-10-05T08:49:43.471Z,256.00
2018-10-05T08:50:43.677Z,252.00
2018-10-05T08:51:43.522Z,260.00
2018-10-05T08:52:43.496Z,260.00
2018-10-05T08:53:43.500Z,260.00
2018-10-05T08:54:43.491Z,260.00
2018-10-05T08:55:43.509Z,260.00
2018-10-05T08:56:43.503Z,260.00
2018-10-05T08:57:43.516Z,260.00
2018-10-05T08:58:43.512Z,260.00
2018-10-05T08:59:43.515Z,260.00
2018-10-05T09:00:43.520Z,256.00
2018-10-05T09:01:43.525Z,260.00
2018-10-05T09:02:43.543Z,260.00
2018-10-05T09:03:43.565Z,264.00
2018-10-05T09:04:43.539Z,260.00
2018-10-05T09:05:43.764Z,260.00
2018-10-05T09:06:43.566Z,252.00
2018-10-05T09:07:43.565Z,252.00
2018-10-05T09:08:43.559Z,256.00
2018-10-05T09:09:43.771Z,264.00
2018-10-05T09:10:43.577Z,260.00
2018-10-05T09:11:43.570Z,264.00
2018-10-05T09:12:43.578Z,260.00
2018-10-05T09:13:43.587Z,264.00
2018-10-05T09:14:43.583Z,256.00
2018-10-05T09:15:43.803Z,256.00
2018-10-05T09:16:43.617Z,260.00
2018-10-05T09:17:43.873Z,260.00
2018-10-05T09:18:43.616Z,260.00
2018-10-05T09:19:43.617Z,256.00
2018-10-05T09:20:43.624Z,260.00
2018-10-05T09:21:43.619Z,256.00
2018-10-05T09:22:43.631Z,260.00
2018-10-05T09:23:43.831Z,260.00
2018-10-05T09:24:43.640Z,260.00
2018-10-05T09:25:43.646Z,260.00
2018-10-05T09:26:43.856Z,260.00
2018-10-05T09:27:43.643Z,256.00
2018-10-05T09:28:43.647Z,256.00
2018-10-05T09:29:43.855Z,256.00
2018-10-05T09:30:43.731Z,256.00
2018-10-05T09:31:43.661Z,256.00
2018-10-05T09:32:43.871Z,256.00
2018-10-05T09:33:43.684Z,256.00
2018-10-05T09:34:43.679Z,256.00
2018-10-05T09:35:43.695Z,260.00
2018-10-05T09:36:43.696Z,260.00
2018-10-05T09:37:43.760Z,260.00
2018-10-05T09:38:43.697Z,260.00
2018-10-05T09:39:43.712Z,264.00
2018-10-05T09:40:43.721Z,256.00
2018-10-05T09:41:43.708Z,260.00
2018-10-05T09:42:43.727Z,252.00
2018-10-05T09:43:43.731Z,272.00
2018-10-05T09:44:43.733Z,268.00
2018-10-05T09:45:43.737Z,268.00
2018-10-05T09:46:43.736Z,268.00
2018-10-05T09:47:43.739Z,272.00
2018-10-05T09:48:43.742Z,272.00
2018-10-05T09:49:43.970Z,272.00
2018-10-05T09:50:43.753Z,272.00
2018-10-05T09:51:44.031Z,276.00
2018-10-05T09:52:43.992Z,272.00
2018-10-05T09:53:43.982Z,276.00
2018-10-05T09:54:43.786Z,276.00
2018-10-05T09:55:43.776Z,276.00
2018-10-05T09:56:43.799Z,272.00
2018-10-05T09:57:43.796Z,276.00
2018-10-05T09:58:43.792Z,280.00
2018-10-05T09:59:43.878Z,276.00
2018-10-05T10:00:43.803Z,276.00
2018-10-05T10:01:43.807Z,276.00
2018-10-05T10:02:44.035Z,276.00
2018-10-05T10:03:43.829Z,276.00
2018-10-05T10:04:44.038Z,276.00
2018-10-05T10:05:43.853Z,280.00
2018-10-05T10:06:44.044Z,284.00
2018-10-05T10:07:43.857Z,268.00
2018-10-05T10:08:43.872Z,276.00
2018-10-05T10:09:43.845Z,276.00
2018-10-05T10:10:43.878Z,276.00
2018-10-05T10:11:43.867Z,280.00
2018-10-05T10:12:43.877Z,276.00
2018-10-05T10:13:43.881Z,276.00
2018-10-05T10:14:43.869Z,284.00
2018-10-05T10:15:43.890Z,284.00
2018-10-05T10:16:43.879Z,260.00
2018-10-05T10:17:43.883Z,272.00
2018-10-05T10:18:43.891Z,280.00
2018-10-05T10:19:43.897Z,280.00
2018-10-05T10:20:44.103Z,284.00
2018-10-05T10:21:43.919Z,284.00
2018-10-05T10:22:43.979Z,280.00
2018-10-05T10:23:43.948Z,276.00
2018-10-05T10:24:44.122Z,280.00
2018-10-05T10:25:43.939Z,276.00
2018-10-05T10:26:43.931Z,280.00
2018-10-05T10:27:44.044Z,284.00
2018-10-05T10:28:44.122Z,276.00
2018-10-05T10:29:43.971Z,276.00
2018-10-05T10:30:43.953Z,264.00
2018-10-05T10:31:43.958Z,264.00
2018-10-05T10:32:43.976Z,284.00
2018-10-05T10:33:44.168Z,288.00
2018-10-05T10:34:44.016Z,288.00
2018-10-05T10:35:44.025Z,284.00
2018-10-05T10:36:44.240Z,288.00
2018-10-05T10:37:44.209Z,288.00
2018-10-05T10:38:44.199Z,288.00
2018-10-05T10:39:44.062Z,288.00
2018-10-05T10:40:44.241Z,288.00
2018-10-05T10:41:44.066Z,288.00
2018-10-05T10:42:44.158Z,288.00
2018-10-05T10:43:44.248Z,284.00
2018-10-05T10:44:44.066Z,288.00
2018-10-05T10:45:44.075Z,288.00
2018-10-05T10:46:44.076Z,288.00
2018-10-05T10:47:44.078Z,284.00
2018-10-05T10:48:44.059Z,284.00
2018-10-05T10:49:44.269Z,288.00
2018-10-05T10:50:44.067Z,288.00
2018-10-05T10:51:44.274Z,292.00
2018-10-05T10:52:44.276Z,288.00
2018-10-05T10:53:44.085Z,292.00
2018-10-05T10:54:44.075Z,276.00
2018-10-05T10:55:44.284Z,280.00
2018-10-05T10:56:44.290Z,272.00
2018-10-05T10:57:44.118Z,280.00
2018-10-05T10:58:44.111Z,284.00
2018-10-05T10:59:44.305Z,284.00
2018-10-05T11:00:44.365Z,284.00
2018-10-05T11:01:44.114Z,284.00
2018-10-05T11:02:44.128Z,280.00
2018-10-05T11:03:44.137Z,276.00
2018-10-05T11:04:44.135Z,280.00
2018-10-05T11:05:44.163Z,276.00
2018-10-05T11:06:44.159Z,252.00
2018-10-05T11:07:44.146Z,292.00
2018-10-05T11:08:44.164Z,288.00
2018-10-05T11:09:44.179Z,288.00
2018-10-05T11:10:44.163Z,292.00
2018-10-05T11:11:44.180Z,276.00
2018-10-05T11:12:44.184Z,284.00
2018-10-05T11:13:44.189Z,276.00
2018-10-05T11:14:44.208Z,288.00
2018-10-05T11:15:44.190Z,288.00
2018-10-05T11:16:44.193Z,288.00
2018-10-05T11:17:44.210Z,288.00
2018-10-05T11:18:44.207Z,288.00
2018-10-05T11:19:44.428Z,288.00
2018-10-05T11:20:44.217Z,288.00
2018-10-05T11:21:44.245Z,292.00
2018-10-05T11:22:44.434Z,280.00
2018-10-05T11:23:44.446Z,288.00
2018-10-05T11:24:44.264Z,276.00
2018-10-05T11:25:44.254Z,280.00
2018-10-05T11:26:44.451Z,272.00
2018-10-05T11:27:44.256Z,272.00
2018-10-05T11:28:44.462Z,264.00
2018-10-05T11:29:44.362Z,268.00
2018-10-05T11:30:44.272Z,264.00
2018-10-05T11:31:44.286Z,272.00
2018-10-05T11:32:44.294Z,272.00
2018-10-05T11:33:44.306Z,276.00
2018-10-05T11:34:44.304Z,276.00
2018-10-05T11:35:44.308Z,276.00
2018-10-05T11:36:44.308Z,276.00
2018-10-05T11:37:44.322Z,272.00
2018-10-05T11:38:44.327Z,276.00
2018-10-05T11:39:44.341Z,276.00
2018-10-05T11:40:44.380Z,272.00
2018-10-05T11:41:44.348Z,268.00
2018-10-05T11:42:44.337Z,268.00
2018-10-05T11:43:44.356Z,264.00
2018-10-05T11:44:44.369Z,260.00
2018-10-05T11:45:44.367Z,260.00
2018-10-05T11:46:44.385Z,260.00
2018-10-05T11:47:44.386Z,264.00
2018-10-05T11:48:44.387Z,260.00
2018-10-05T11:49:44.388Z,260.00
2018-10-05T11:50:44.599Z,256.00
2018-10-05T11:51:44.399Z,256.00
2018-10-05T11:52:44.599Z,260.00
2018-10-05T11:53:44.421Z,260.00
2018-10-05T11:54:44.408Z,260.00
2018-10-05T11:55:44.435Z,260.00
2018-10-05T11:56:44.417Z,260.00
2018-10-05T11:57:44.422Z,248.00
2018-10-05T11:58:44.438Z,252.00
2018-10-05T11:59:44.509Z,252.00
2018-10-05T12:00:44.459Z,252.00
2018-10-05T12:01:44.448Z,252.00
2018-10-05T12:02:44.464Z,256.00
2018-10-05T12:03:44.662Z,256.00
2018-10-05T12:04:44.491Z,256.00
2018-10-05T12:05:44.503Z,252.00
2018-10-05T12:06:44.488Z,256.00
2018-10-05T12:07:44.694Z,252.00
2018-10-05T12:08:44.702Z,252.00
2018-10-05T12:09:44.494Z,252.00
2018-10-05T12:10:44.711Z,252.00
2018-10-05T12:11:44.737Z,256.00
2018-10-05T12:12:44.512Z,256.00
2018-10-05T12:13:44.583Z,252.00
2018-10-05T12:14:44.723Z,252.00
2018-10-05T12:15:44.527Z,252.00
2018-10-05T12:16:44.544Z,252.00
2018-10-05T12:17:44.538Z,248.00
2018-10-05T12:18:44.549Z,248.00
2018-10-05T12:19:44.613Z,248.00
2018-10-05T12:20:44.571Z,248.00
2018-10-05T12:21:44.764Z,248.00
2018-10-05T12:22:44.567Z,248.00
2018-10-05T12:23:44.574Z,248.00
2018-10-05T12:24:44.582Z,244.00
2018-10-05T12:25:44.599Z,248.00
2018-10-05T12:26:44.616Z,248.00
2018-10-05T12:27:44.616Z,248.00
2018-10-05T12:28:44.607Z,244.00
2018-10-05T12:29:44.612Z,248.00
2018-10-05T12:30:44.623Z,244.00
2018-10-05T12:31:44.620Z,240.00
2018-10-05T12:32:44.630Z,236.00
2018-10-05T12:33:44.645Z,240.00
2018-10-05T12:34:44.638Z,236.00
2018-10-05T12:35:44.655Z,240.00
2018-10-05T12:36:44.652Z,240.00
2018-10-05T12:37:44.670Z,240.00
2018-10-05T12:38:44.876Z,244.00
2018-10-05T12:39:44.885Z,248.00
2018-10-05T12:40:44.876Z,244.00
2018-10-05T12:41:44.881Z,244.00
2018-10-05T12:42:44.699Z,248.00
2018-10-05T12:43:44.704Z,248.00
2018-10-05T12:44:44.708Z,244.00
2018-10-05T12:45:44.705Z,240.00
2018-10-05T12:46:44.709Z,240.00
2018-10-05T12:47:44.730Z,240.00
2018-10-05T12:48:44.726Z,240.00
2018-10-05T12:49:44.741Z,240.00
2018-10-05T12:50:44.734Z,240.00
2018-10-05T12:51:44.740Z,240.00
2018-10-05T12:52:44.746Z,240.00